sensor_id;sensor_type;location;lat;lon;timestamp;temperature;humidity
69009;SHT31;56065;52.472;13.380;2023-05-13T00:01:28;15.59;57.49
69009;SHT31;56065;52.472;13.380;2023-05-13T00:03:53;15.55;57.81
69009;SHT31;56065;52.472;13.380;2023-05-13T00:06:19;15.50;58.03
69009;SHT31;56065;52.472;13.380;2023-05-13T00:08:44;15.43;57.87
69009;SHT31;56065;52.472;13.380;2023-05-13T00:11:09;15.43;57.85
69009;SHT31;56065;52.472;13.380;2023-05-13T00:13:35;15.35;57.89
69009;SHT31;56065;52.472;13.380;2023-05-13T00:16:01;15.34;58.10
69009;SHT31;56065;52.472;13.380;2023-05-13T00:18:26;15.31;58.48
69009;SHT31;56065;52.472;13.380;2023-05-13T00:20:52;15.26;58.16
69009;SHT31;56065;52.472;13.380;2023-05-13T00:23:17;15.24;58.30
69009;SHT31;56065;52.472;13.380;2023-05-13T00:25:42;15.19;58.54
69009;SHT31;56065;52.472;13.380;2023-05-13T00:28:09;15.16;58.56
69009;SHT31;56065;52.472;13.380;2023-05-13T00:30:35;15.12;58.43
69009;SHT31;56065;52.472;13.380;2023-05-13T00:33:01;15.02;58.88
69009;SHT31;56065;52.472;13.380;2023-05-13T00:35:26;15.04;59.00
69009;SHT31;56065;52.472;13.380;2023-05-13T00:37:51;14.99;59.36
69009;SHT31;56065;52.472;13.380;2023-05-13T00:40:22;14.98;59.24
69009;SHT31;56065;52.472;13.380;2023-05-13T00:42:48;14.94;59.32
69009;SHT31;56065;52.472;13.380;2023-05-13T00:45:13;14.91;59.37
69009;SHT31;56065;52.472;13.380;2023-05-13T00:47:40;14.91;60.05
69009;SHT31;56065;52.472;13.380;2023-05-13T00:50:07;14.91;59.61
69009;SHT31;56065;52.472;13.380;2023-05-13T00:52:33;14.91;59.28
69009;SHT31;56065;52.472;13.380;2023-05-13T00:54:59;14.91;59.85
69009;SHT31;56065;52.472;13.380;2023-05-13T00:57:24;14.87;60.16
69009;SHT31;56065;52.472;13.380;2023-05-13T00:59:50;14.87;59.68
69009;SHT31;56065;52.472;13.380;2023-05-13T01:02:24;14.87;60.13
69009;SHT31;56065;52.472;13.380;2023-05-13T01:05:01;14.87;59.84
69009;SHT31;56065;52.472;13.380;2023-05-13T01:07:52;14.81;59.94
69009;SHT31;56065;52.472;13.380;2023-05-13T01:11:00;14.81;60.30
69009;SHT31;56065;52.472;13.380;2023-05-13T01:13:30;14.80;60.09
69009;SHT31;56065;52.472;13.380;2023-05-13T01:16:07;14.78;59.89
69009;SHT31;56065;52.472;13.380;2023-05-13T01:18:44;14.77;60.07
69009;SHT31;56065;52.472;13.380;2023-05-13T01:21:11;14.75;59.82
69009;SHT31;56065;52.472;13.380;2023-05-13T01:23:37;14.68;60.58
69009;SHT31;56065;52.472;13.380;2023-05-13T01:26:02;14.64;60.63
69009;SHT31;56065;52.472;13.380;2023-05-13T01:28:28;14.61;60.38
69009;SHT31;56065;52.472;13.380;2023-05-13T01:30:53;14.56;61.04
69009;SHT31;56065;52.472;13.380;2023-05-13T01:33:22;14.56;60.56
69009;SHT31;56065;52.472;13.380;2023-05-13T01:35:48;14.57;60.52
69009;SHT31;56065;52.472;13.380;2023-05-13T01:38:14;14.56;60.79
69009;SHT31;56065;52.472;13.380;2023-05-13T01:40:40;14.56;60.56
69009;SHT31;56065;52.472;13.380;2023-05-13T01:43:06;14.53;60.66
69009;SHT31;56065;52.472;13.380;2023-05-13T01:45:32;14.53;60.71
69009;SHT31;56065;52.472;13.380;2023-05-13T01:47:58;14.56;60.56
69009;SHT31;56065;52.472;13.380;2023-05-13T01:50:23;14.54;61.14
69009;SHT31;56065;52.472;13.380;2023-05-13T01:52:49;14.50;60.85
69009;SHT31;56065;52.472;13.380;2023-05-13T01:55:14;14.50;60.67
69009;SHT31;56065;52.472;13.380;2023-05-13T01:57:40;14.47;60.84
69009;SHT31;56065;52.472;13.380;2023-05-13T02:00:05;14.43;60.97
69009;SHT31;56065;52.472;13.380;2023-05-13T02:02:32;14.40;61.22
69009;SHT31;56065;52.472;13.380;2023-05-13T02:04:57;14.41;61.20
69009;SHT31;56065;52.472;13.380;2023-05-13T02:07:22;14.41;61.10
69009;SHT31;56065;52.472;13.380;2023-05-13T02:09:48;14.34;61.51
69009;SHT31;56065;52.472;13.380;2023-05-13T02:12:13;14.37;61.51
69009;SHT31;56065;52.472;13.380;2023-05-13T02:14:38;14.33;61.24
69009;SHT31;56065;52.472;13.380;2023-05-13T02:17:04;14.33;61.28
69009;SHT31;56065;52.472;13.380;2023-05-13T02:19:29;14.27;61.27
69009;SHT31;56065;52.472;13.380;2023-05-13T02:21:54;14.29;61.84
69009;SHT31;56065;52.472;13.380;2023-05-13T02:24:20;14.24;61.35
69009;SHT31;56065;52.472;13.380;2023-05-13T02:26:45;14.22;61.53
69009;SHT31;56065;52.472;13.380;2023-05-13T02:29:10;14.20;61.30
69009;SHT31;56065;52.472;13.380;2023-05-13T02:31:36;14.16;61.37
69009;SHT31;56065;52.472;13.380;2023-05-13T02:34:02;14.08;61.83
69009;SHT31;56065;52.472;13.380;2023-05-13T02:36:27;14.09;61.47
69009;SHT31;56065;52.472;13.380;2023-05-13T02:38:53;14.06;61.77
69009;SHT31;56065;52.472;13.380;2023-05-13T02:41:18;14.02;61.94
69009;SHT31;56065;52.472;13.380;2023-05-13T02:43:43;14.01;62.35
69009;SHT31;56065;52.472;13.380;2023-05-13T02:46:09;13.99;62.11
69009;SHT31;56065;52.472;13.380;2023-05-13T02:48:34;13.98;62.44
69009;SHT31;56065;52.472;13.380;2023-05-13T02:50:59;13.96;62.17
69009;SHT31;56065;52.472;13.380;2023-05-13T02:53:25;14.03;62.30
69009;SHT31;56065;52.472;13.380;2023-05-13T02:55:50;14.01;62.22
69009;SHT31;56065;52.472;13.380;2023-05-13T02:58:15;14.06;62.26
69009;SHT31;56065;52.472;13.380;2023-05-13T03:00:41;14.05;62.01
69009;SHT31;56065;52.472;13.380;2023-05-13T03:03:07;14.08;61.98
69009;SHT31;56065;52.472;13.380;2023-05-13T03:05:32;14.09;61.80
69009;SHT31;56065;52.472;13.380;2023-05-13T03:07:58;14.02;62.43
69009;SHT31;56065;52.472;13.380;2023-05-13T03:10:23;13.98;62.28
69009;SHT31;56065;52.472;13.380;2023-05-13T03:12:49;13.98;61.92
69009;SHT31;56065;52.472;13.380;2023-05-13T03:15:15;13.93;63.39
69009;SHT31;56065;52.472;13.380;2023-05-13T03:17:41;13.89;62.55
69009;SHT31;56065;52.472;13.380;2023-05-13T03:20:09;13.87;62.24
69009;SHT31;56065;52.472;13.380;2023-05-13T03:22:35;13.83;62.40
69009;SHT31;56065;52.472;13.380;2023-05-13T03:25:04;13.69;62.92
69009;SHT31;56065;52.472;13.380;2023-05-13T03:27:29;13.64;62.87
69009;SHT31;56065;52.472;13.380;2023-05-13T03:29:54;13.64;62.91
69009;SHT31;56065;52.472;13.380;2023-05-13T03:32:24;13.59;62.88
69009;SHT31;56065;52.472;13.380;2023-05-13T03:34:55;13.50;63.43
69009;SHT31;56065;52.472;13.380;2023-05-13T03:37:20;13.45;63.63
69009;SHT31;56065;52.472;13.380;2023-05-13T03:39:46;13.47;63.78
69009;SHT31;56065;52.472;13.380;2023-05-13T03:42:11;13.44;64.03
69009;SHT31;56065;52.472;13.380;2023-05-13T03:44:36;13.40;63.87
69009;SHT31;56065;52.472;13.380;2023-05-13T03:47:01;13.43;63.97
69009;SHT31;56065;52.472;13.380;2023-05-13T03:49:27;13.35;63.73
69009;SHT31;56065;52.472;13.380;2023-05-13T03:51:52;13.35;63.72
69009;SHT31;56065;52.472;13.380;2023-05-13T03:54:18;13.33;63.72
69009;SHT31;56065;52.472;13.380;2023-05-13T03:56:43;13.31;64.10
69009;SHT31;56065;52.472;13.380;2023-05-13T03:59:09;13.31;64.90
69009;SHT31;56065;52.472;13.380;2023-05-13T04:01:34;13.34;63.96
69009;SHT31;56065;52.472;13.380;2023-05-13T04:04:00;13.35;63.99
69009;SHT31;56065;52.472;13.380;2023-05-13T04:06:25;13.37;64.01
69009;SHT31;56065;52.472;13.380;2023-05-13T04:08:50;13.38;63.96
69009;SHT31;56065;52.472;13.380;2023-05-13T04:11:16;13.37;64.34
69009;SHT31;56065;52.472;13.380;2023-05-13T04:13:41;13.37;64.01
69009;SHT31;56065;52.472;13.380;2023-05-13T04:16:10;13.38;64.03
69009;SHT31;56065;52.472;13.380;2023-05-13T04:18:35;13.43;63.78
69009;SHT31;56065;52.472;13.380;2023-05-13T04:21:07;13.41;63.52
69009;SHT31;56065;52.472;13.380;2023-05-13T04:23:33;13.45;63.53
69009;SHT31;56065;52.472;13.380;2023-05-13T04:25:58;13.53;63.27
69009;SHT31;56065;52.472;13.380;2023-05-13T04:28:24;13.57;63.35
69009;SHT31;56065;52.472;13.380;2023-05-13T04:30:49;13.61;63.36
69009;SHT31;56065;52.472;13.380;2023-05-13T04:33:14;13.62;63.36
69009;SHT31;56065;52.472;13.380;2023-05-13T04:35:40;13.65;63.22
69009;SHT31;56065;52.472;13.380;2023-05-13T04:38:06;13.68;62.94
69009;SHT31;56065;52.472;13.380;2023-05-13T04:40:31;13.71;63.00
69009;SHT31;56065;52.472;13.380;2023-05-13T04:42:57;13.76;62.62
69009;SHT31;56065;52.472;13.380;2023-05-13T04:45:22;13.76;62.45
69009;SHT31;56065;52.472;13.380;2023-05-13T04:47:48;13.81;62.78
69009;SHT31;56065;52.472;13.380;2023-05-13T04:50:13;13.83;62.03
69009;SHT31;56065;52.472;13.380;2023-05-13T04:52:39;13.96;62.07
69009;SHT31;56065;52.472;13.380;2023-05-13T04:55:08;14.03;61.94
69009;SHT31;56065;52.472;13.380;2023-05-13T04:57:33;14.09;61.81
69009;SHT31;56065;52.472;13.380;2023-05-13T04:59:59;14.09;62.42
69009;SHT31;56065;52.472;13.380;2023-05-13T05:02:25;14.22;61.91
69009;SHT31;56065;52.472;13.380;2023-05-13T05:04:50;14.24;61.47
69009;SHT31;56065;52.472;13.380;2023-05-13T05:07:15;14.32;61.24
69009;SHT31;56065;52.472;13.380;2023-05-13T05:09:41;14.34;61.18
69009;SHT31;56065;52.472;13.380;2023-05-13T05:12:06;14.43;61.09
69009;SHT31;56065;52.472;13.380;2023-05-13T05:14:33;14.50;61.25
69009;SHT31;56065;52.472;13.380;2023-05-13T05:16:58;14.57;61.29
69009;SHT31;56065;52.472;13.380;2023-05-13T05:19:24;14.68;60.98
69009;SHT31;56065;52.472;13.380;2023-05-13T05:21:50;14.77;60.64
69009;SHT31;56065;52.472;13.380;2023-05-13T05:24:16;14.83;60.05
69009;SHT31;56065;52.472;13.380;2023-05-13T05:26:41;14.96;59.78
69009;SHT31;56065;52.472;13.380;2023-05-13T05:29:06;15.08;59.97
69009;SHT31;56065;52.472;13.380;2023-05-13T05:31:32;15.18;59.23
69009;SHT31;56065;52.472;13.380;2023-05-13T05:33:57;15.21;58.67
69009;SHT31;56065;52.472;13.380;2023-05-13T05:36:23;15.35;59.11
69009;SHT31;56065;52.472;13.380;2023-05-13T05:38:48;15.39;58.80
69009;SHT31;56065;52.472;13.380;2023-05-13T05:41:14;15.47;58.44
69009;SHT31;56065;52.472;13.380;2023-05-13T05:43:39;15.66;57.79
69009;SHT31;56065;52.472;13.380;2023-05-13T05:46:04;15.80;57.80
69009;SHT31;56065;52.472;13.380;2023-05-13T05:48:30;15.91;57.18
69009;SHT31;56065;52.472;13.380;2023-05-13T05:50:55;16.01;57.11
69009;SHT31;56065;52.472;13.380;2023-05-13T05:53:21;16.20;58.18
69009;SHT31;56065;52.472;13.380;2023-05-13T05:55:46;16.28;56.03
69009;SHT31;56065;52.472;13.380;2023-05-13T05:58:16;16.41;56.29
69009;SHT31;56065;52.472;13.380;2023-05-13T06:00:41;16.90;55.52
69009;SHT31;56065;52.472;13.380;2023-05-13T06:03:06;17.78;55.00
69009;SHT31;56065;52.472;13.380;2023-05-13T06:05:32;18.60;53.15
69009;SHT31;56065;52.472;13.380;2023-05-13T06:07:57;19.38;51.97
69009;SHT31;56065;52.472;13.380;2023-05-13T06:10:23;20.01;48.90
69009;SHT31;56065;52.472;13.380;2023-05-13T06:12:48;20.52;49.38
69009;SHT31;56065;52.472;13.380;2023-05-13T06:15:15;21.06;47.82
69009;SHT31;56065;52.472;13.380;2023-05-13T06:17:40;21.70;47.29
69009;SHT31;56065;52.472;13.380;2023-05-13T06:20:06;22.42;46.53
69009;SHT31;56065;52.472;13.380;2023-05-13T06:22:31;23.18;44.80
69009;SHT31;56065;52.472;13.380;2023-05-13T06:24:57;23.68;44.68
69009;SHT31;56065;52.472;13.380;2023-05-13T06:27:23;23.81;43.18
69009;SHT31;56065;52.472;13.380;2023-05-13T06:29:48;24.09;42.65
69009;SHT31;56065;52.472;13.380;2023-05-13T06:32:13;24.22;40.87
69009;SHT31;56065;52.472;13.380;2023-05-13T06:34:40;24.36;41.59
69009;SHT31;56065;52.472;13.380;2023-05-13T06:37:10;24.75;41.34
69009;SHT31;56065;52.472;13.380;2023-05-13T06:39:35;25.19;40.02
69009;SHT31;56065;52.472;13.380;2023-05-13T06:42:00;25.72;41.13
69009;SHT31;56065;52.472;13.380;2023-05-13T06:44:26;26.01;40.73
69009;SHT31;56065;52.472;13.380;2023-05-13T06:46:51;26.47;38.84
69009;SHT31;56065;52.472;13.380;2023-05-13T06:49:16;26.65;38.72
69009;SHT31;56065;52.472;13.380;2023-05-13T06:51:42;27.05;37.48
69009;SHT31;56065;52.472;13.380;2023-05-13T06:54:07;27.19;37.51
69009;SHT31;56065;52.472;13.380;2023-05-13T06:56:33;27.39;38.41
69009;SHT31;56065;52.472;13.380;2023-05-13T06:58:58;27.85;37.57
69009;SHT31;56065;52.472;13.380;2023-05-13T07:01:24;28.28;37.35
69009;SHT31;56065;52.472;13.380;2023-05-13T07:03:49;28.62;36.92
69009;SHT31;56065;52.472;13.380;2023-05-13T07:06:15;28.73;37.14
69009;SHT31;56065;52.472;13.380;2023-05-13T07:08:40;28.83;35.54
69009;SHT31;56065;52.472;13.380;2023-05-13T07:11:06;29.11;34.83
69009;SHT31;56065;52.472;13.380;2023-05-13T07:13:31;29.50;33.52
69009;SHT31;56065;52.472;13.380;2023-05-13T07:15:59;28.73;34.22
69009;SHT31;56065;52.472;13.380;2023-05-13T07:18:24;29.07;34.20
69009;SHT31;56065;52.472;13.380;2023-05-13T07:20:50;29.82;34.20
69009;SHT31;56065;52.472;13.380;2023-05-13T07:23:15;30.52;34.46
69009;SHT31;56065;52.472;13.380;2023-05-13T07:25:41;31.04;34.61
69009;SHT31;56065;52.472;13.380;2023-05-13T07:28:06;31.53;33.62
69009;SHT31;56065;52.472;13.380;2023-05-13T07:30:32;31.63;31.39
69009;SHT31;56065;52.472;13.380;2023-05-13T07:32:57;31.69;31.94
69009;SHT31;56065;52.472;13.380;2023-05-13T07:35:23;31.59;31.01
69009;SHT31;56065;52.472;13.380;2023-05-13T07:37:48;31.49;30.37
69009;SHT31;56065;52.472;13.380;2023-05-13T07:40:14;31.61;31.36
69009;SHT31;56065;52.472;13.380;2023-05-13T07:42:39;31.87;29.82
69009;SHT31;56065;52.472;13.380;2023-05-13T07:45:06;31.72;31.22
69009;SHT31;56065;52.472;13.380;2023-05-13T07:47:32;31.69;30.73
69009;SHT31;56065;52.472;13.380;2023-05-13T07:49:58;31.67;30.25
69009;SHT31;56065;52.472;13.380;2023-05-13T07:52:24;31.93;30.26
69009;SHT31;56065;52.472;13.380;2023-05-13T07:54:49;32.09;29.99
69009;SHT31;56065;52.472;13.380;2023-05-13T07:57:15;31.47;29.05
69009;SHT31;56065;52.472;13.380;2023-05-13T07:59:40;31.87;30.52
69009;SHT31;56065;52.472;13.380;2023-05-13T08:02:06;31.96;30.38
69009;SHT31;56065;52.472;13.380;2023-05-13T08:04:32;32.45;30.71
69009;SHT31;56065;52.472;13.380;2023-05-13T08:06:57;32.21;30.37
69009;SHT31;56065;52.472;13.380;2023-05-13T08:09:23;32.55;30.61
69009;SHT31;56065;52.472;13.380;2023-05-13T08:11:51;32.62;30.96
69009;SHT31;56065;52.472;13.380;2023-05-13T08:14:16;32.95;30.47
69009;SHT31;56065;52.472;13.380;2023-05-13T08:16:41;32.86;29.92
69009;SHT31;56065;52.472;13.380;2023-05-13T08:19:08;33.18;29.63
69009;SHT31;56065;52.472;13.380;2023-05-13T08:21:33;32.96;29.80
69009;SHT31;56065;52.472;13.380;2023-05-13T08:23:59;32.89;31.18
69009;SHT31;56065;52.472;13.380;2023-05-13T08:26:24;32.50;29.65
69009;SHT31;56065;52.472;13.380;2023-05-13T08:28:49;32.10;30.62
69009;SHT31;56065;52.472;13.380;2023-05-13T08:31:15;31.89;31.06
69009;SHT31;56065;52.472;13.380;2023-05-13T08:33:40;31.58;30.45
69009;SHT31;56065;52.472;13.380;2023-05-13T08:36:11;31.66;32.24
69009;SHT31;56065;52.472;13.380;2023-05-13T08:38:36;31.98;30.71
69009;SHT31;56065;52.472;13.380;2023-05-13T08:41:05;31.87;31.47
69009;SHT31;56065;52.472;13.380;2023-05-13T08:43:31;32.53;30.70
69009;SHT31;56065;52.472;13.380;2023-05-13T08:46:02;32.38;30.55
69009;SHT31;56065;52.472;13.380;2023-05-13T08:48:28;32.40;31.48
69009;SHT31;56065;52.472;13.380;2023-05-13T08:50:54;32.38;30.70
69009;SHT31;56065;52.472;13.380;2023-05-13T08:53:21;33.27;30.71
69009;SHT31;56065;52.472;13.380;2023-05-13T08:55:49;33.47;30.63
69009;SHT31;56065;52.472;13.380;2023-05-13T08:58:15;33.80;30.03
69009;SHT31;56065;52.472;13.380;2023-05-13T09:00:41;33.33;29.98
69009;SHT31;56065;52.472;13.380;2023-05-13T09:03:07;33.01;29.86
69009;SHT31;56065;52.472;13.380;2023-05-13T09:05:34;32.82;30.34
69009;SHT31;56065;52.472;13.380;2023-05-13T09:08:05;32.88;30.00
69009;SHT31;56065;52.472;13.380;2023-05-13T09:10:31;33.26;30.24
69009;SHT31;56065;52.472;13.380;2023-05-13T09:12:57;33.67;29.39
69009;SHT31;56065;52.472;13.380;2023-05-13T09:15:24;33.86;29.41
69009;SHT31;56065;52.472;13.380;2023-05-13T09:17:55;33.52;29.49
69009;SHT31;56065;52.472;13.380;2023-05-13T09:20:22;33.70;28.39
69009;SHT31;56065;52.472;13.380;2023-05-13T09:22:56;33.13;29.02
69009;SHT31;56065;52.472;13.380;2023-05-13T09:25:23;33.66;29.31
69009;SHT31;56065;52.472;13.380;2023-05-13T09:27:54;34.01;28.90
69009;SHT31;56065;52.472;13.380;2023-05-13T09:30:23;34.78;28.08
69009;SHT31;56065;52.472;13.380;2023-05-13T09:35:38;34.90;26.40
69009;SHT31;56065;52.472;13.380;2023-05-13T09:38:17;33.80;26.69
69009;SHT31;56065;52.472;13.380;2023-05-13T09:40:53;33.29;27.95
69009;SHT31;56065;52.472;13.380;2023-05-13T09:43:21;33.66;26.86
69009;SHT31;56065;52.472;13.380;2023-05-13T09:45:46;33.69;27.30
69009;SHT31;56065;52.472;13.380;2023-05-13T09:48:13;33.73;26.41
69009;SHT31;56065;52.472;13.380;2023-05-13T09:50:49;33.40;27.67
69009;SHT31;56065;52.472;13.380;2023-05-13T09:53:15;34.98;26.67
69009;SHT31;56065;52.472;13.380;2023-05-13T09:55:48;35.21;26.14
69009;SHT31;56065;52.472;13.380;2023-05-13T09:58:14;35.04;25.67
69009;SHT31;56065;52.472;13.380;2023-05-13T10:00:40;34.78;25.70
69009;SHT31;56065;52.472;13.380;2023-05-13T10:03:07;33.90;25.16
69009;SHT31;56065;52.472;13.380;2023-05-13T10:05:33;33.76;25.70
69009;SHT31;56065;52.472;13.380;2023-05-13T10:07:59;33.59;26.57
69009;SHT31;56065;52.472;13.380;2023-05-13T10:10:29;33.77;25.08
69009;SHT31;56065;52.472;13.380;2023-05-13T10:12:58;34.05;25.79
69009;SHT31;56065;52.472;13.380;2023-05-13T10:15:28;34.15;27.05
69009;SHT31;56065;52.472;13.380;2023-05-13T10:17:54;34.52;25.53
69009;SHT31;56065;52.472;13.380;2023-05-13T10:20:20;35.26;25.00
69009;SHT31;56065;52.472;13.380;2023-05-13T10:22:47;35.95;24.02
69009;SHT31;56065;52.472;13.380;2023-05-13T10:25:14;34.47;25.34
69009;SHT31;56065;52.472;13.380;2023-05-13T10:27:40;34.40;26.35
69009;SHT31;56065;52.472;13.380;2023-05-13T10:30:06;35.27;25.33
69009;SHT31;56065;52.472;13.380;2023-05-13T10:32:36;35.37;24.43
69009;SHT31;56065;52.472;13.380;2023-05-13T10:35:13;35.90;24.13
69009;SHT31;56065;52.472;13.380;2023-05-13T10:43:22;37.35;24.43
69009;SHT31;56065;52.472;13.380;2023-05-13T10:45:51;37.60;23.80
69009;SHT31;56065;52.472;13.380;2023-05-13T10:48:21;36.33;23.98
69009;SHT31;56065;52.472;13.380;2023-05-13T10:50:50;35.41;24.29
69009;SHT31;56065;52.472;13.380;2023-05-13T10:53:30;35.61;25.45
69009;SHT31;56065;52.472;13.380;2023-05-13T10:55:58;36.28;24.11
69009;SHT31;56065;52.472;13.380;2023-05-13T10:58:35;36.29;24.67
69009;SHT31;56065;52.472;13.380;2023-05-13T11:01:25;35.82;24.87
69009;SHT31;56065;52.472;13.380;2023-05-13T11:03:55;36.68;25.06
69009;SHT31;56065;52.472;13.380;2023-05-13T11:06:23;36.82;25.97
69009;SHT31;56065;52.472;13.380;2023-05-13T11:08:50;36.49;26.05
69009;SHT31;56065;52.472;13.380;2023-05-13T11:13:42;36.12;24.05
69009;SHT31;56065;52.472;13.380;2023-05-13T11:16:10;35.54;24.70
69009;SHT31;56065;52.472;13.380;2023-05-13T11:18:36;35.19;25.13
69009;SHT31;56065;52.472;13.380;2023-05-13T11:21:03;35.47;25.68
69009;SHT31;56065;52.472;13.380;2023-05-13T11:23:31;35.37;25.58
69009;SHT31;56065;52.472;13.380;2023-05-13T11:26:11;35.23;25.42
69009;SHT31;56065;52.472;13.380;2023-05-13T11:28:56;35.21;25.81
69009;SHT31;56065;52.472;13.380;2023-05-13T11:31:22;35.84;26.28
69009;SHT31;56065;52.472;13.380;2023-05-13T11:34:09;36.55;25.48
69009;SHT31;56065;52.472;13.380;2023-05-13T11:37:13;37.13;24.90
69009;SHT31;56065;52.472;13.380;2023-05-13T11:39:33;37.13;23.70
69009;SHT31;56065;52.472;13.380;2023-05-13T11:41:59;35.92;23.82
69009;SHT31;56065;52.472;13.380;2023-05-13T11:44:28;35.60;25.94
69009;SHT31;56065;52.472;13.380;2023-05-13T11:46:55;35.88;24.24
69009;SHT31;56065;52.472;13.380;2023-05-13T11:52:08;33.98;25.02
69009;SHT31;56065;52.472;13.380;2023-05-13T11:54:47;33.77;25.27
69009;SHT31;56065;52.472;13.380;2023-05-13T11:57:24;33.90;23.99
69009;SHT31;56065;52.472;13.380;2023-05-13T12:02:14;34.10;25.45
69009;SHT31;56065;52.472;13.380;2023-05-13T12:04:40;34.21;25.57
69009;SHT31;56065;52.472;13.380;2023-05-13T12:07:10;34.58;27.71
69009;SHT31;56065;52.472;13.380;2023-05-13T12:09:36;35.29;25.57
69009;SHT31;56065;52.472;13.380;2023-05-13T12:12:01;35.57;24.60
69009;SHT31;56065;52.472;13.380;2023-05-13T12:14:27;35.58;24.73
69009;SHT31;56065;52.472;13.380;2023-05-13T12:16:55;35.33;25.01
69009;SHT31;56065;52.472;13.380;2023-05-13T12:19:21;35.65;25.26
69009;SHT31;56065;52.472;13.380;2023-05-13T12:21:49;35.67;25.31
69009;SHT31;56065;52.472;13.380;2023-05-13T12:24:19;35.68;24.87
69009;SHT31;56065;52.472;13.380;2023-05-13T12:26:45;35.14;25.25
69009;SHT31;56065;52.472;13.380;2023-05-13T12:29:11;34.89;25.43
69009;SHT31;56065;52.472;13.380;2023-05-13T12:31:36;34.40;24.69
69009;SHT31;56065;52.472;13.380;2023-05-13T12:34:02;34.32;25.08
69009;SHT31;56065;52.472;13.380;2023-05-13T12:36:30;35.23;24.91
69009;SHT31;56065;52.472;13.380;2023-05-13T12:39:00;35.36;26.44
69009;SHT31;56065;52.472;13.380;2023-05-13T12:44:10;34.18;25.93
69009;SHT31;56065;52.472;13.380;2023-05-13T12:46:36;34.12;25.99
69009;SHT31;56065;52.472;13.380;2023-05-13T12:49:04;34.34;27.36
69009;SHT31;56065;52.472;13.380;2023-05-13T12:51:30;34.37;26.76
69009;SHT31;56065;52.472;13.380;2023-05-13T12:53:56;34.58;25.55
69009;SHT31;56065;52.472;13.380;2023-05-13T12:56:23;33.73;26.18
69009;SHT31;56065;52.472;13.380;2023-05-13T12:58:49;34.52;27.09
69009;SHT31;56065;52.472;13.380;2023-05-13T13:01:15;34.79;25.27
69009;SHT31;56065;52.472;13.380;2023-05-13T13:03:40;34.81;26.40
69009;SHT31;56065;52.472;13.380;2023-05-13T13:06:06;35.13;26.28
69009;SHT31;56065;52.472;13.380;2023-05-13T13:08:33;34.82;26.35
69009;SHT31;56065;52.472;13.380;2023-05-13T13:10:58;34.88;26.24
69009;SHT31;56065;52.472;13.380;2023-05-13T13:13:24;34.42;27.42
69009;SHT31;56065;52.472;13.380;2023-05-13T13:15:49;33.91;26.49
69009;SHT31;56065;52.472;13.380;2023-05-13T13:18:15;32.60;27.89
69009;SHT31;56065;52.472;13.380;2023-05-13T13:20:40;32.37;28.56
69009;SHT31;56065;52.472;13.380;2023-05-13T13:23:05;33.45;27.22
69009;SHT31;56065;52.472;13.380;2023-05-13T13:25:31;33.11;27.52
69009;SHT31;56065;52.472;13.380;2023-05-13T13:27:57;33.47;28.20
69009;SHT31;56065;52.472;13.380;2023-05-13T13:30:22;33.76;28.12
69009;SHT31;56065;52.472;13.380;2023-05-13T13:32:47;33.81;27.53
69009;SHT31;56065;52.472;13.380;2023-05-13T13:35:13;34.15;27.35
69009;SHT31;56065;52.472;13.380;2023-05-13T13:37:38;34.38;26.27
69009;SHT31;56065;52.472;13.380;2023-05-13T13:40:04;33.89;26.70
69009;SHT31;56065;52.472;13.380;2023-05-13T13:42:30;33.50;27.82
69009;SHT31;56065;52.472;13.380;2023-05-13T13:44:55;33.83;28.01
69009;SHT31;56065;52.472;13.380;2023-05-13T13:47:20;33.89;26.44
69009;SHT31;56065;52.472;13.380;2023-05-13T13:49:47;32.45;27.69
69009;SHT31;56065;52.472;13.380;2023-05-13T13:52:12;31.72;28.51
69009;SHT31;56065;52.472;13.380;2023-05-13T13:54:37;31.97;28.91
69009;SHT31;56065;52.472;13.380;2023-05-13T13:57:03;32.55;28.41
69009;SHT31;56065;52.472;13.380;2023-05-13T13:59:28;32.62;28.85
69009;SHT31;56065;52.472;13.380;2023-05-13T14:01:54;32.41;28.44
69009;SHT31;56065;52.472;13.380;2023-05-13T14:04:20;32.45;27.46
69009;SHT31;56065;52.472;13.380;2023-05-13T14:06:48;32.92;28.16
69009;SHT31;56065;52.472;13.380;2023-05-13T14:09:14;32.35;28.12
69009;SHT31;56065;52.472;13.380;2023-05-13T14:11:39;30.70;29.28
69009;SHT31;56065;52.472;13.380;2023-05-13T14:14:05;29.64;30.57
69009;SHT31;56065;52.472;13.380;2023-05-13T14:16:31;29.44;31.64
69009;SHT31;56065;52.472;13.380;2023-05-13T14:18:56;29.00;31.20
69009;SHT31;56065;52.472;13.380;2023-05-13T14:21:21;28.56;31.94
69009;SHT31;56065;52.472;13.380;2023-05-13T14:23:47;28.02;31.96
69009;SHT31;56065;52.472;13.380;2023-05-13T14:26:12;27.50;31.91
69009;SHT31;56065;52.472;13.380;2023-05-13T14:28:40;27.03;32.47
69009;SHT31;56065;52.472;13.380;2023-05-13T14:31:05;27.46;32.34
69009;SHT31;56065;52.472;13.380;2023-05-13T14:33:31;28.04;31.30
69009;SHT31;56065;52.472;13.380;2023-05-13T14:35:56;28.48;30.94
69009;SHT31;56065;52.472;13.380;2023-05-13T14:38:21;28.83;30.86
69009;SHT31;56065;52.472;13.380;2023-05-13T14:40:47;29.20;29.76
69009;SHT31;56065;52.472;13.380;2023-05-13T14:43:12;29.44;30.18
69009;SHT31;56065;52.472;13.380;2023-05-13T14:45:38;29.85;29.43
69009;SHT31;56065;52.472;13.380;2023-05-13T14:48:03;29.71;29.20
69009;SHT31;56065;52.472;13.380;2023-05-13T14:50:28;29.88;30.95
69009;SHT31;56065;52.472;13.380;2023-05-13T14:52:54;30.03;29.96
69009;SHT31;56065;52.472;13.380;2023-05-13T14:55:19;29.86;30.52
69009;SHT31;56065;52.472;13.380;2023-05-13T14:57:45;29.69;29.71
69009;SHT31;56065;52.472;13.380;2023-05-13T15:00:10;29.88;29.66
69009;SHT31;56065;52.472;13.380;2023-05-13T15:02:36;29.64;29.40
69009;SHT31;56065;52.472;13.380;2023-05-13T15:05:01;29.02;28.99
69009;SHT31;56065;52.472;13.380;2023-05-13T15:07:27;28.73;30.34
69009;SHT31;56065;52.472;13.380;2023-05-13T15:09:53;28.41;30.63
69009;SHT31;56065;52.472;13.380;2023-05-13T15:12:19;28.63;30.91
69009;SHT31;56065;52.472;13.380;2023-05-13T15:14:54;28.72;31.23
69009;SHT31;56065;52.472;13.380;2023-05-13T15:17:20;29.04;31.92
69009;SHT31;56065;52.472;13.380;2023-05-13T15:19:45;29.30;31.19
69009;SHT31;56065;52.472;13.380;2023-05-13T15:22:11;29.34;30.45
69009;SHT31;56065;52.472;13.380;2023-05-13T15:24:37;29.20;31.36
69009;SHT31;56065;52.472;13.380;2023-05-13T15:27:03;28.84;30.27
69009;SHT31;56065;52.472;13.380;2023-05-13T15:29:28;28.04;30.89
69009;SHT31;56065;52.472;13.380;2023-05-13T15:31:54;27.95;31.89